08:34
Airports
History
Links
Donate
Help me keep this website running!
Information on this page is community maintained and may be outdated or inaccurate and is intended for simulator navigating and reference only!
Always use approved charts for navigating.
EGLC
London City
London City (EGLC)
London, United Kingdom
(C)
Lat/Lng:51° 30' 18.83" N / 0° 3' 18.63" E
51.505231 / 0.055175
Elevation:19'ft 6mMSL
ID / ICAO:EGLC
Runways:1
Longest:(09-27) 1,496.7m 4,910ft Concrete
Controlled:Yes
Distance To
Airport ID:
Airport Radio Frequencies
City Information : 136.35
Ground: 121.82
Tower: 118.07, 118.4
Approach: 132.7
Nearby VORs <50NM
Nearby NDBs
METARUpdated 08-28-16 08:20 GMT
Altimeter: 29.88
Visibility: 6.2 statute miles
Wind: 11 knots (240°)
Temp: 20°c 68°f
Humidity: 72.9%

METAR: EGLC 280820Z AUTO 24011KT 9999 FEW020/// 20/15 Q1012

(Powered by phpweather)
Runway 09 / 27
Dimensions:1,496.7 x 29.9m 4,910' x 98'ft
Surface:Concrete
Edge Lights:High intensity
Runway 09 [A]Runway 27 [B]
Heading:092°TH 272°TH
Lat:
Lng:
51° 30' 20.06"N
0° 2' 39.61"E
51° 30' 17.6"N
0° 3' 57.65"E
ALS:MALSMALS
TDZ:Yes, lighted
Google Map
Nearby Airports
4 Damyns Hall 8.3 NM
EGML ENE 78°
(C) Stapleford 11.0 NM
EGSG NNE 22°
(C) Biggin Hill 12.2 NM
EGKB (WX) S 184°
4 Thurrock 13.6 NM
EGMT E 80°
(U) RAF Kenley 15.3 NM
EGKN SSW 205°
(C) North Weald 15.7 NM
EGSX NNE 15°
(C) Elstree 19.4 NM
EGTR WNW 302°
VFR Chart
Flight Planning at SkyVector.com